Time;durP1;ratioP1;P1;durP2;ratioP2;P2;SDS_P1;SDS_P2;PMS_P1;PMS_P2;Temp;Humidity;BMP_temperature;BMP_pressure;BME280_temperature;BME280_humidity;BME280_pressure;Samples;Min_cycle;Max_cycle;Signal;HPM_P1;HPM_P2
2023/09/12 00:02:13;;;;;;;4.25;2.42;;;;;;;20.37;64.89;99887.75;4958509;28;20150;-55
2023/09/12 00:04:40;;;;;;;4.75;2.70;;;;;;;20.37;65.51;99890.41;4955117;28;20046;-48
2023/09/12 00:07:07;;;;;;;5.60;2.75;;;;;;;20.38;65.03;99887.69;4955859;28;20051;-49
2023/09/12 00:09:34;;;;;;;5.43;2.80;;;;;;;20.39;65.01;99889.41;4953435;28;20061;-54
2023/09/12 00:12:00;;;;;;;5.43;2.38;;;;;;;20.37;64.90;99885.97;4970594;28;20042;-47
2023/09/12 00:14:27;;;;;;;5.20;2.72;;;;;;;20.37;65.00;99891.22;4963535;28;20050;-52
2023/09/12 00:16:55;;;;;;;4.65;2.55;;;;;;;20.37;65.10;99890.41;4951659;28;20412;-51
2023/09/12 00:19:22;;;;;;;6.07;2.40;;;;;;;20.37;65.17;99885.13;4955055;28;20054;-53
2023/09/12 00:21:48;;;;;;;5.40;2.65;;;;;;;20.36;65.19;99883.44;4950955;28;20055;-51
2023/09/12 00:24:15;;;;;;;5.18;2.22;;;;;;;20.34;65.33;99890.53;4955495;28;20401;-48
2023/09/12 00:26:42;;;;;;;4.47;2.40;;;;;;;20.31;64.89;99888.03;4960835;28;20070;-51
2023/09/12 00:29:09;;;;;;;5.18;2.35;;;;;;;20.27;64.98;99889.97;4966853;28;20055;-51
2023/09/12 00:31:35;;;;;;;5.75;2.92;;;;;;;20.22;64.98;99882.28;4958017;28;20274;-52
2023/09/12 00:34:02;;;;;;;3.78;2.42;;;;;;;20.18;65.40;99885.97;4958584;28;20055;-52
2023/09/12 00:36:29;;;;;;;4.22;2.42;;;;;;;20.12;65.15;99888.88;4957017;28;20047;-50
2023/09/12 00:38:56;;;;;;;4.60;2.35;;;;;;;20.06;65.27;99892.63;4962402;28;20047;-52
2023/09/12 00:41:23;;;;;;;5.03;2.42;;;;;;;20.01;65.58;99890.22;4963351;28;20100;-52
2023/09/12 00:43:50;;;;;;;5.40;2.53;;;;;;;19.98;65.55;99890.31;4961083;28;20046;-49
2023/09/12 00:46:21;;;;;;;4.88;2.42;;;;;;;19.97;65.41;99880.75;4959863;28;20511;-48
2023/09/12 00:48:50;;;;;;;4.75;2.45;;;;;;;19.94;65.50;99878.25;4984877;28;20081;-49
2023/09/12 00:51:20;;;;;;;4.13;2.45;;;;;;;19.93;65.40;99881.81;4963088;28;20061;-53
2023/09/12 00:53:47;;;;;;;4.82;2.95;;;;;;;19.90;65.38;99872.25;4956797;28;20260;-50
2023/09/12 00:56:14;;;;;;;4.05;2.03;;;;;;;19.88;65.58;99873.25;4959553;28;20054;-46
2023/09/12 00:58:41;;;;;;;4.70;2.22;;;;;;;19.86;65.75;99881.19;4957713;28;20058;-49
2023/09/12 01:01:08;;;;;;;4.63;2.15;;;;;;;19.84;65.37;99876.94;4960141;28;20096;-50
2023/09/12 01:03:35;;;;;;;3.55;2.30;;;;;;;19.81;65.42;99871.81;4960626;28;20051;-53
2023/09/12 01:06:03;;;;;;;8.57;2.75;;;;;;;19.78;65.66;99876.31;4966079;28;20043;-50
2023/09/12 01:08:29;;;;;;;6.50;2.47;;;;;;;19.75;65.96;99873.81;4955003;28;20051;-47
2023/09/12 01:10:58;;;;;;;5.75;2.60;;;;;;;19.74;65.84;99872.09;4958553;28;20050;-52
2023/09/12 01:13:24;;;;;;;4.20;2.72;;;;;;;19.71;65.33;99868.75;4987709;28;20054;-52
2023/09/12 01:15:51;;;;;;;6.70;2.53;;;;;;;19.70;65.80;99870.53;4957067;28;20042;-45
2023/09/12 01:18:18;;;;;;;4.43;2.03;;;;;;;19.69;65.92;99874.06;4957909;28;20161;-47
2023/09/12 01:26:55;;;;;;;4.60;2.05;;;;;;;19.62;65.75;99872.66;5018755;28;20760;-49
2023/09/12 01:29:24;;;;;;;4.28;2.28;;;;;;;19.63;65.65;99869.94;4996961;28;20057;-48
2023/09/12 01:31:52;;;;;;;3.05;1.65;;;;;;;19.63;66.15;99869.09;4997004;28;20049;-54
2023/09/12 01:34:19;;;;;;;4.50;2.30;;;;;;;19.61;65.92;99870.91;4997046;28;20050;-47
2023/09/12 01:36:46;;;;;;;5.85;2.97;;;;;;;19.58;65.99;99866.66;4998103;28;20511;-47
2023/09/12 01:39:13;;;;;;;4.20;2.35;;;;;;;19.56;66.09;99858.00;4996071;28;20046;-50
2023/09/12 01:41:44;;;;;;;3.38;2.20;;;;;;;19.56;65.80;99862.38;4997822;28;20477;-48
2023/09/12 01:44:11;;;;;;;3.83;2.08;;;;;;;19.55;66.08;99858.06;4998102;28;20046;-50
2023/09/12 01:46:39;;;;;;;3.78;1.90;;;;;;;19.55;66.11;99863.31;4998884;28;20838;-47
2023/09/12 01:49:09;;;;;;;4.45;2.40;;;;;;;19.56;66.10;99851.88;4994573;28;20489;-49
2023/09/12 01:51:36;;;;;;;4.05;2.00;;;;;;;19.55;66.49;99850.19;4997197;28;20050;-51
2023/09/12 01:54:04;;;;;;;3.42;2.38;;;;;;;19.56;66.25;99851.88;4996235;28;20460;-49
2023/09/12 01:56:31;;;;;;;3.47;2.15;;;;;;;19.57;66.31;99853.59;4998125;28;20698;-52
2023/09/12 01:58:58;;;;;;;6.00;2.47;;;;;;;19.58;66.33;99847.41;4981202;28;20046;-50
2023/09/12 02:01:27;;;;;;;4.50;2.08;;;;;;;19.58;66.57;99844.78;4975482;28;20054;-46
2023/09/12 02:03:53;;;;;;;5.70;2.83;;;;;;;19.58;66.51;99844.78;4963960;28;20063;-52
2023/09/12 02:06:20;;;;;;;5.57;2.95;;;;;;;19.59;66.62;99846.50;4971162;28;20050;-49
2023/09/12 02:08:47;;;;;;;5.22;2.20;;;;;;;19.59;66.45;99851.75;4977967;28;20046;-54
2023/09/12 02:11:14;;;;;;;4.82;2.33;;;;;;;19.59;66.30;99847.34;4976861;28;20049;-48
2023/09/12 02:13:40;;;;;;;4.60;2.00;;;;;;;19.60;66.84;99848.19;4975240;28;20062;-49
2023/09/12 02:16:07;;;;;;;5.63;2.55;;;;;;;19.60;66.47;99845.56;4974760;28;20061;-50
2023/09/12 02:18:34;;;;;;;4.47;2.10;;;;;;;19.60;66.35;99837.69;4974482;28;20650;-48
2023/09/12 02:21:01;;;;;;;6.07;2.50;;;;;;;19.61;66.34;99844.66;4975981;28;20054;-51
2023/09/12 02:23:27;;;;;;;7.47;2.35;;;;;;;19.62;66.48;99830.63;4971518;28;20081;-48
2023/09/12 02:25:56;;;;;;;4.72;2.83;;;;;;;19.61;66.17;99823.63;4973350;28;20118;-48
2023/09/12 02:28:22;;;;;;;4.22;2.22;;;;;;;19.55;66.08;99811.63;4971436;28;20046;-54
2023/09/12 02:30:49;;;;;;;4.22;2.50;;;;;;;19.47;66.31;99822.47;4975457;28;20075;-48
2023/09/12 02:33:16;;;;;;;4.93;2.75;;;;;;;19.39;66.20;99829.84;4971845;28;20162;-53
2023/09/12 02:35:42;;;;;;;3.72;2.33;;;;;;;19.33;66.83;99843.22;4974147;28;20522;-46
2023/09/12 02:38:09;;;;;;;4.80;3.17;;;;;;;19.27;65.86;99847.81;4961588;28;20463;-48
2023/09/12 02:40:36;;;;;;;6.55;3.10;;;;;;;19.24;66.68;99847.94;4962005;28;20054;-54
2023/09/12 02:43:03;;;;;;;4.97;2.63;;;;;;;19.19;66.23;99839.44;4967139;28;20050;-51
2023/09/12 02:45:29;;;;;;;7.03;2.75;;;;;;;19.16;66.63;99842.16;4959902;28;20046;-53
2023/09/12 02:47:56;;;;;;;5.70;2.70;;;;;;;19.14;66.58;99846.63;4965669;28;20106;-48
2023/09/12 02:50:23;;;;;;;6.90;3.40;;;;;;;19.08;66.38;99849.53;4966480;28;20061;-51
2023/09/12 02:52:49;;;;;;;6.43;3.25;;;;;;;19.05;66.68;99844.34;4969802;28;20054;-45
2023/09/12 02:55:16;;;;;;;4.53;2.85;;;;;;;19.02;67.07;99848.81;4966177;28;20046;-49
2023/09/12 02:57:43;;;;;;;4.18;2.55;;;;;;;18.98;66.85;99849.84;4979315;28;20055;-49
2023/09/12 03:00:11;;;;;;;6.30;3.22;;;;;;;18.94;66.85;99840.41;4967110;28;20070;-47
2023/09/12 03:02:38;;;;;;;6.30;3.22;;;;;;;18.94;67.05;99853.50;4965514;28;20676;-48
2023/09/12 03:05:05;;;;;;;7.55;3.33;;;;;;;18.92;67.41;99851.88;4972899;28;20047;-48
2023/09/12 03:07:31;;;;;;;6.35;3.15;;;;;;;18.91;67.07;99852.81;4968579;28;20060;-53
2023/09/12 03:09:58;;;;;;;8.90;3.47;;;;;;;18.92;67.15;99851.88;4971793;28;20073;-50
2023/09/12 03:12:25;;;;;;;6.65;3.55;;;;;;;18.93;67.15;99856.19;4963784;28;20129;-48
2023/09/12 03:14:51;;;;;;;5.88;3.40;;;;;;;18.95;67.67;99852.59;4967409;28;20134;-46
2023/09/12 03:17:18;;;;;;;7.65;3.60;;;;;;;18.97;67.74;99856.03;4966171;28;20058;-49
2023/09/12 03:19:45;;;;;;;9.45;3.53;;;;;;;18.99;67.79;99855.97;4965937;28;20105;-51
2023/09/12 03:22:12;;;;;;;6.82;3.80;;;;;;;19.00;67.26;99858.53;4965009;28;20049;-48
2023/09/12 03:24:38;;;;;;;6.78;3.47;;;;;;;19.03;67.61;99860.16;4962384;28;20787;-52
2023/09/12 03:27:05;;;;;;;7.88;3.42;;;;;;;19.05;67.41;99857.47;4964821;28;20054;-52
2023/09/12 03:29:32;;;;;;;8.07;3.63;;;;;;;19.06;67.36;99853.94;4963925;28;20615;-52
2023/09/12 03:31:58;;;;;;;6.53;3.28;;;;;;;19.08;68.09;99857.38;4960773;28;20053;-48
2023/09/12 03:34:25;;;;;;;8.25;3.17;;;;;;;19.11;67.58;99857.25;4965727;28;20382;-51
2023/09/12 03:36:52;;;;;;;7.65;3.78;;;;;;;19.11;67.34;99852.00;4968239;28;20045;-49
2023/09/12 03:39:19;;;;;;;7.05;3.17;;;;;;;19.13;67.96;99855.41;4965660;28;20723;-52
2023/09/12 03:41:45;;;;;;;7.30;3.40;;;;;;;19.16;67.89;99855.31;4964676;28;20130;-50
2023/09/12 03:44:12;;;;;;;6.00;3.20;;;;;;;19.17;67.95;99856.13;4967826;28;20046;-51
2023/09/12 03:46:39;;;;;;;6.03;3.30;;;;;;;19.17;67.84;99857.00;4964870;28;20059;-52
2023/09/12 03:49:05;;;;;;;7.60;4.28;;;;;;;19.17;67.42;99851.75;4960976;28;20082;-49
2023/09/12 03:51:34;;;;;;;7.60;3.30;;;;;;;19.17;67.50;99853.50;4957908;28;20043;-51
2023/09/12 03:54:01;;;;;;;7.25;3.08;;;;;;;19.16;67.70;99839.53;4959643;28;20141;-50
2023/09/12 03:56:28;;;;;;;6.45;3.17;;;;;;;19.13;67.77;99843.16;4965236;28;20673;-49
2023/09/12 03:58:57;;;;;;;7.95;4.10;;;;;;;19.13;67.77;99842.28;4960863;28;20046;-52
2023/09/12 04:01:24;;;;;;;8.18;3.75;;;;;;;19.13;67.87;99844.91;4960080;28;20077;-52
2023/09/12 04:03:51;;;;;;;6.50;3.17;;;;;;;19.12;68.00;99843.22;4957647;28;20512;-48
2023/09/12 04:06:18;;;;;;;6.95;3.75;;;;;;;19.12;68.17;99845.84;4960868;28;20050;-49
2023/09/12 04:08:44;;;;;;;7.97;3.42;;;;;;;19.11;68.16;99844.13;4959343;28;20711;-52
2023/09/12 04:11:11;;;;;;;7.20;3.83;;;;;;;19.12;67.91;99843.22;4960612;28;20054;-48
2023/09/12 04:13:38;;;;;;;7.95;4.38;;;;;;;19.10;68.31;99840.66;4960410;28;20059;-50
2023/09/12 04:16:04;;;;;;;6.57;3.83;;;;;;;19.08;68.07;99842.47;4961424;28;20523;-48
2023/09/12 04:18:31;;;;;;;7.65;3.33;;;;;;;19.05;68.13;99844.34;4963119;28;20163;-50
2023/09/12 04:20:58;;;;;;;6.45;3.63;;;;;;;19.06;68.13;99843.44;4960814;28;20053;-52
2023/09/12 04:23:25;;;;;;;8.25;4.03;;;;;;;19.06;67.92;99848.69;4960359;28;20042;-52
2023/09/12 04:25:52;;;;;;;7.70;3.60;;;;;;;19.05;67.70;99842.56;4960199;28;20745;-54
2023/09/12 04:28:19;;;;;;;8.90;3.50;;;;;;;19.04;68.30;99840.03;4958020;28;20233;-47
2023/09/12 04:30:45;;;;;;;7.55;3.70;;;;;;;19.04;67.70;99840.03;4958410;28;20049;-50
2023/09/12 04:33:13;;;;;;;7.10;3.90;;;;;;;19.05;67.70;99841.72;4959272;28;20047;-52
2023/09/12 04:35:40;;;;;;;7.18;3.92;;;;;;;19.05;67.97;99836.47;4959961;28;20563;-48
2023/09/12 04:38:06;;;;;;;11.73;5.38;;;;;;;19.05;68.35;99837.31;4958775;28;20675;-52
2023/09/12 04:40:33;;;;;;;7.35;3.65;;;;;;;19.06;68.22;99838.19;4962495;28;20081;-53
2023/09/12 04:43:00;;;;;;;6.82;3.58;;;;;;;19.05;67.90;99837.31;4958074;28;20081;-48
2023/09/12 04:45:27;;;;;;;8.98;3.50;;;;;;;19.05;67.57;99833.84;4969576;28;20518;-49
2023/09/12 04:47:53;;;;;;;9.90;4.38;;;;;;;19.04;68.40;99832.16;4967330;28;20130;-46
2023/09/12 04:50:20;;;;;;;11.10;3.95;;;;;;;19.02;68.50;99838.31;4965888;28;20461;-48
2023/09/12 04:52:46;;;;;;;8.90;3.97;;;;;;;19.00;68.18;99834.91;4965737;28;20055;-48
2023/09/12 04:55:13;;;;;;;8.57;4.15;;;;;;;19.02;68.21;99834.84;4965785;28;20050;-50
2023/09/12 04:57:40;;;;;;;7.60;4.50;;;;;;;19.03;68.21;99839.16;4962626;28;20050;-50
2023/09/12 05:00:10;;;;;;;9.10;4.25;;;;;;;19.04;68.16;99840.03;4957935;28;20054;-52
2023/09/12 05:02:37;;;;;;;8.15;3.75;;;;;;;19.03;68.49;99839.16;4957274;28;20102;-49
2023/09/12 05:05:05;;;;;;;11.25;3.50;;;;;;;19.04;68.29;99845.28;4959422;28;20050;-47
2023/09/12 05:07:31;;;;;;;8.95;4.72;;;;;;;19.04;68.60;99846.13;4962971;28;20508;-51
2023/09/12 05:09:58;;;;;;;8.10;4.22;;;;;;;19.03;68.39;99849.66;4957786;28;20053;-47
2023/09/12 05:12:25;;;;;;;7.25;2.97;;;;;;;19.01;68.31;99846.25;4959580;28;20042;-48
2023/09/12 05:14:51;;;;;;;10.32;4.28;;;;;;;19.00;68.42;99845.41;4959692;28;20047;-46
2023/09/12 05:17:18;;;;;;;6.75;3.83;;;;;;;19.00;68.61;99844.53;4960186;28;20053;-48
2023/09/12 05:19:45;;;;;;;5.95;3.47;;;;;;;18.98;68.73;99839.34;4959652;28;20047;-48
2023/09/12 05:22:11;;;;;;;9.30;4.30;;;;;;;18.99;68.78;99843.66;4963183;28;20051;-45
2023/09/12 05:24:38;;;;;;;8.52;3.65;;;;;;;18.99;68.50;99843.66;4958094;28;20721;-47
2023/09/12 05:27:05;;;;;;;8.27;3.72;;;;;;;18.99;68.79;99846.28;4956652;28;20073;-52
2023/09/12 05:29:32;;;;;;;7.38;3.88;;;;;;;19.00;68.76;99839.28;4959729;28;20054;-48
2023/09/12 05:31:59;;;;;;;8.13;3.25;;;;;;;18.99;68.57;99838.44;4958965;28;20062;-49
2023/09/12 05:34:26;;;;;;;8.13;3.08;;;;;;;18.98;68.90;99844.59;4958732;28;20047;-50
2023/09/12 05:36:52;;;;;;;7.85;2.88;;;;;;;18.97;68.75;99845.53;4961352;28;20047;-48
2023/09/12 05:39:19;;;;;;;6.68;3.08;;;;;;;18.96;68.64;99848.22;4963375;28;20047;-48
2023/09/12 05:41:46;;;;;;;7.22;3.80;;;;;;;18.94;68.34;99839.53;4964789;28;20148;-47
2023/09/12 05:44:17;;;;;;;6.63;3.08;;;;;;;18.91;68.68;99840.50;4957824;28;20404;-51
2023/09/12 05:46:46;;;;;;;7.88;2.95;;;;;;;18.92;68.61;99837.00;4962256;28;20463;-48
2023/09/12 05:49:14;;;;;;;7.22;3.25;;;;;;;18.91;68.71;99845.75;4962351;28;20055;-47
2023/09/12 05:51:42;;;;;;;6.63;2.50;;;;;;;18.93;68.96;99843.94;4960980;28;20121;-49
2023/09/12 05:54:10;;;;;;;8.18;3.75;;;;;;;18.93;69.05;99843.94;4964655;28;20047;-48
2023/09/12 05:56:37;;;;;;;8.63;3.75;;;;;;;18.92;68.62;99842.25;4962064;28;20078;-50
2023/09/12 05:59:03;;;;;;;7.10;3.28;;;;;;;18.91;68.55;99856.25;4964807;28;20057;-47
2023/09/12 06:01:31;;;;;;;6.22;3.67;;;;;;;18.91;68.61;99856.25;4957836;28;20051;-50
2023/09/12 06:03:57;;;;;;;6.65;3.35;;;;;;;18.90;68.91;99854.56;4959203;28;20058;-49
2023/09/12 06:06:24;;;;;;;8.27;3.22;;;;;;;18.93;69.30;99854.44;4957226;28;20042;-51
2023/09/12 06:08:53;;;;;;;5.20;2.63;;;;;;;18.95;69.11;99857.84;4957565;28;20049;-48
2023/09/12 06:11:20;;;;;;;6.63;3.30;;;;;;;18.97;68.88;99861.28;4958685;28;20047;-52
2023/09/12 06:13:46;;;;;;;5.60;2.95;;;;;;;19.00;69.44;99858.53;4959678;28;20423;-49
2023/09/12 06:16:13;;;;;;;6.85;3.42;;;;;;;19.02;69.32;99856.69;4962694;28;20676;-51
2023/09/12 06:18:40;;;;;;;7.07;2.90;;;;;;;19.06;69.35;99864.44;4965058;28;20129;-47
2023/09/12 06:21:08;;;;;;;6.13;3.30;;;;;;;19.08;69.34;99863.47;4965577;28;20055;-49
2023/09/12 06:23:36;;;;;;;5.45;2.95;;;;;;;19.10;69.34;99860.78;4965278;28;20054;-48
2023/09/12 06:26:03;;;;;;;6.45;3.33;;;;;;;19.13;69.51;99871.16;4963946;28;20043;-48
2023/09/12 06:28:31;;;;;;;8.65;4.28;;;;;;;19.14;69.10;99867.63;4962821;28;20102;-50
2023/09/12 06:30:58;;;;;;;7.22;3.53;;;;;;;19.17;69.43;99872.75;4979147;28;20696;-50
2023/09/12 06:33:26;;;;;;;7.15;3.28;;;;;;;19.19;69.16;99870.94;4966844;28;20051;-48
2023/09/12 06:35:53;;;;;;;5.63;3.35;;;;;;;19.21;68.86;99874.31;4963638;28;20134;-46
2023/09/12 06:38:21;;;;;;;8.90;3.15;;;;;;;19.23;68.85;99871.63;4966019;28;20050;-47
2023/09/12 06:40:48;;;;;;;10.10;4.35;;;;;;;19.22;69.13;99876.03;4965516;28;20072;-47
2023/09/12 06:43:15;;;;;;;8.73;3.92;;;;;;;19.24;69.26;99874.19;4967555;28;20604;-48
2023/09/12 06:45:42;;;;;;;8.25;4.07;;;;;;;19.26;68.88;99880.22;4956789;28;20051;-50
2023/09/12 06:48:09;;;;;;;9.63;3.35;;;;;;;19.26;69.23;99874.97;4965736;28;20054;-45
2023/09/12 06:50:37;;;;;;;8.57;3.83;;;;;;;19.28;69.38;99874.91;4960367;28;20405;-50
2023/09/12 06:53:07;;;;;;;6.57;3.40;;;;;;;19.29;69.40;99878.41;4955190;28;20070;-51
2023/09/12 06:55:34;;;;;;;10.05;4.82;;;;;;;19.31;69.28;99880.03;4963968;28;20053;-50
2023/09/12 06:58:01;;;;;;;8.45;3.60;;;;;;;19.32;69.40;99886.16;4962020;28;20091;-49
2023/09/12 07:00:27;;;;;;;12.32;4.30;;;;;;;19.32;69.54;99880.91;4962324;28;20055;-44
2023/09/12 07:02:54;;;;;;;8.82;4.25;;;;;;;19.34;69.59;99884.31;4958380;28;20636;-44
2023/09/12 07:05:21;;;;;;;10.98;3.97;;;;;;;19.35;69.51;99883.41;4961389;28;20039;-48
2023/09/12 07:07:48;;;;;;;8.13;3.75;;;;;;;19.38;69.93;99885.88;4960519;28;20094;-52
2023/09/12 07:10:15;;;;;;;8.35;3.92;;;;;;;19.39;69.65;99887.63;4957513;28;20063;-55
2023/09/12 07:12:52;;;;;;;9.02;4.00;;;;;;;19.41;70.09;99891.00;4963285;28;20047;-50
2023/09/12 07:15:18;;;;;;;7.35;3.90;;;;;;;19.43;69.90;99896.19;4960280;28;20074;-54
2023/09/12 07:17:45;;;;;;;10.20;3.75;;;;;;;19.43;69.67;99889.19;4958901;28;20051;-48
2023/09/12 07:20:12;;;;;;;8.55;3.85;;;;;;;19.43;70.08;99899.69;4956424;28;20074;-50
2023/09/12 07:22:40;;;;;;;6.57;3.58;;;;;;;19.42;69.94;99895.34;4962021;28;20695;-52
2023/09/12 07:25:09;;;;;;;8.10;3.83;;;;;;;19.42;70.17;99892.72;4963036;28;20054;-46
2023/09/12 07:27:36;;;;;;;8.40;4.40;;;;;;;19.40;70.13;99897.19;4960015;28;20051;-51
2023/09/12 07:30:06;;;;;;;9.15;3.95;;;;;;;19.41;70.13;99896.25;4962095;28;20047;-54
2023/09/12 07:32:33;;;;;;;9.27;4.28;;;;;;;19.41;70.18;99893.63;4960867;28;20081;-48
2023/09/12 07:34:59;;;;;;;10.13;4.05;;;;;;;19.40;70.36;99899.81;4975504;28;20130;-49
2023/09/12 07:37:26;;;;;;;8.25;3.65;;;;;;;19.43;70.08;99904.94;4962015;28;20050;-45
2023/09/12 07:39:53;;;;;;;7.55;3.83;;;;;;;19.44;70.48;99909.28;4964539;28;20117;-52
2023/09/12 07:42:22;;;;;;;8.30;3.78;;;;;;;19.43;70.32;99904.09;4955091;28;20613;-53
2023/09/12 07:44:49;;;;;;;;;;;;;;;19.25;70.17;99903.94;4967087;28;20149;-49
2023/09/12 07:47:16;;;;;;;9.35;4.35;;;;;;;19.37;69.97;99902.56;4968071;28;19926;-52
2023/09/12 07:49:43;;;;;;;7.07;3.90;;;;;;;19.37;70.14;99900.81;4963570;28;20038;-48
2023/09/12 07:52:10;;;;;;;8.68;4.00;;;;;;;19.38;70.11;99907.75;4968363;28;20043;-55
2023/09/12 07:54:36;;;;;;;9.38;4.20;;;;;;;19.39;70.73;99898.13;4966467;28;20129;-55
2023/09/12 07:57:03;;;;;;;8.65;3.42;;;;;;;19.39;70.52;99903.38;4964093;28;20047;-54
2023/09/12 07:59:30;;;;;;;8.63;3.72;;;;;;;19.39;70.64;99911.25;4964355;28;20062;-52
2023/09/12 08:01:57;;;;;;;7.15;3.88;;;;;;;19.41;70.45;99908.56;4961024;28;20051;-46
2023/09/12 08:04:24;;;;;;;6.60;3.47;;;;;;;19.42;70.59;99908.47;4963035;28;20061;-49
2023/09/12 08:06:51;;;;;;;13.30;4.45;;;;;;;19.45;70.93;99913.59;4959292;28;20043;-46
2023/09/12 08:09:44;;;;;;;8.68;3.47;;;;;;;19.45;70.50;99908.34;4962892;28;20154;-49
2023/09/12 08:12:11;;;;;;;8.00;4.50;;;;;;;19.46;70.67;99903.97;4961010;28;21194;-48
2023/09/12 08:14:38;;;;;;;8.57;3.42;;;;;;;19.48;70.58;99912.59;4957215;28;20109;-48
2023/09/12 08:17:05;;;;;;;8.05;3.67;;;;;;;19.51;70.78;99923.00;4960096;28;20125;-46
2023/09/12 08:19:33;;;;;;;7.93;4.25;;;;;;;19.57;71.32;99916.63;4960177;28;20109;-53
2023/09/12 08:21:59;;;;;;;7.40;3.83;;;;;;;19.61;70.97;99923.44;4962349;28;20216;-48
2023/09/12 08:24:26;;;;;;;8.13;4.47;;;;;;;19.67;71.17;99917.09;4964262;28;20058;-50
2023/09/12 08:26:54;;;;;;;7.55;3.33;;;;;;;19.70;71.13;99922.22;4965110;28;20492;-48
2023/09/12 08:29:21;;;;;;;7.85;3.92;;;;;;;19.74;71.41;99923.78;4966940;28;20051;-48
2023/09/12 08:31:48;;;;;;;7.80;4.00;;;;;;;19.75;70.88;99920.22;4964250;28;20764;-49
2023/09/12 08:34:15;;;;;;;8.85;3.58;;;;;;;19.79;71.15;99924.44;4963049;28;20607;-52
2023/09/12 08:36:41;;;;;;;8.98;4.82;;;;;;;19.84;71.10;99932.13;4970090;28;20042;-47
2023/09/12 08:39:13;;;;;;;8.40;4.50;;;;;;;19.86;71.05;99930.28;4964567;28;20407;-50
2023/09/12 08:41:40;;;;;;;11.40;4.50;;;;;;;19.88;71.03;99933.69;4962958;28;20047;-47
2023/09/12 08:44:08;;;;;;;7.95;4.05;;;;;;;19.90;71.31;99931.88;4965955;28;20050;-48
2023/09/12 08:46:34;;;;;;;9.70;4.00;;;;;;;19.95;71.31;99929.88;4966469;28;20066;-55
2023/09/12 08:49:03;;;;;;;8.38;4.32;;;;;;;19.97;70.96;99933.31;4962730;28;20057;-48
2023/09/12 08:51:32;;;;;;;8.15;3.95;;;;;;;20.00;71.25;99930.56;4962513;28;20584;-54
2023/09/12 08:53:59;;;;;;;7.25;4.25;;;;;;;20.02;70.93;99936.63;4963006;28;20661;-46
2023/09/12 08:56:27;;;;;;;6.97;4.20;;;;;;;20.02;70.78;99936.63;4964289;28;20093;-47
2023/09/12 08:58:55;;;;;;;6.13;3.85;;;;;;;20.04;70.82;99932.13;4963107;28;20327;-49
2023/09/12 09:01:22;;;;;;;7.00;3.45;;;;;;;20.02;71.23;99933.97;4957819;28;20628;-55
2023/09/12 09:03:49;;;;;;;8.38;3.60;;;;;;;20.01;70.95;99936.69;4960741;28;20086;-47
2023/09/12 09:06:16;;;;;;;8.55;4.10;;;;;;;19.99;71.00;99934.13;4965370;28;20389;-55
2023/09/12 09:08:45;;;;;;;6.10;3.50;;;;;;;19.96;70.81;99928.94;4956495;28;20046;-50
2023/09/12 09:11:11;;;;;;;6.20;3.55;;;;;;;19.92;71.08;99937.91;4962440;28;20055;-51
2023/09/12 09:13:38;;;;;;;7.55;4.03;;;;;;;19.89;71.04;99941.53;4961026;28;20519;-56
2023/09/12 09:16:21;;;;;;;7.05;3.38;;;;;;;19.87;71.48;99945.13;4965692;28;20050;-45
2023/09/12 09:21:31;;;;;;;6.95;4.57;;;;;;;20.00;71.42;99933.19;5013488;27;20400;-52
2023/09/12 09:24:03;;;;;;;8.55;4.63;;;;;;;20.06;71.31;99937.31;5003424;28;20042;-53
2023/09/12 09:26:50;;;;;;;6.97;4.80;;;;;;;20.04;71.64;99942.63;5005667;28;20069;-48
2023/09/12 09:29:24;;;;;;;6.75;3.75;;;;;;;20.14;71.62;99937.00;5004984;28;20559;-48
2023/09/12 09:31:52;;;;;;;7.35;4.57;;;;;;;20.19;71.42;99940.25;4991857;28;20064;-50
2023/09/12 09:34:21;;;;;;;5.53;4.20;;;;;;;20.27;71.71;99942.56;4999168;28;20049;-49
2023/09/12 09:39:28;;;;;;;4.65;2.60;;;;;;;20.44;71.78;99930.41;4993164;28;20410;-47
2023/09/12 09:41:55;;;;;;;;;;;;;;;20.41;71.97;99934.03;4970907;28;20061;-52
2023/09/12 09:44:26;;;;;;;4.25;2.40;;;;;;;20.61;71.62;99935.75;4965316;28;19930;-51
2023/09/12 09:47:00;;;;;;;4.47;2.88;;;;;;;20.69;71.00;99938.00;4970304;28;20058;-49
2023/09/12 09:49:27;;;;;;;5.70;2.45;;;;;;;20.73;71.47;99929.03;4971604;28;21017;-48
2023/09/12 09:51:55;;;;;;;4.25;2.38;;;;;;;20.78;71.41;99932.31;4971600;28;20119;-50
2023/09/12 09:54:24;;;;;;;4.13;2.70;;;;;;;;;;4972102;28;20085;-44
2023/09/12 09:56:56;;;;;;;4.40;2.38;;;;;;;20.81;70.49;99929.53;4984874;28;20059;-45
2023/09/12 09:59:24;;;;;;;5.32;2.17;;;;;;;;;;4971148;28;20062;-47
2023/09/12 10:01:56;;;;;;;4.50;2.83;;;;;;;20.79;70.79;99927.91;4980020;28;20057;-48
2023/09/12 10:04:26;;;;;;;3.90;1.90;;;;;;;20.78;70.42;99927.03;4978645;28;20612;-51
2023/09/12 10:06:56;;;;;;;5.13;2.50;;;;;;;20.76;70.41;99934.16;4973346;28;20062;-49
2023/09/12 10:09:26;;;;;;;7.00;2.78;;;;;;;20.73;70.45;99934.31;4973834;28;20067;-46
2023/09/12 10:11:55;;;;;;;4.85;2.50;;;;;;;20.73;70.36;99933.47;4975293;28;20215;-47
2023/09/12 10:14:23;;;;;;;4.65;2.45;;;;;;;20.72;70.66;99932.63;4975417;28;20067;-52
2023/09/12 10:16:55;;;;;;;3.45;1.90;;;;;;;20.69;70.47;99930.13;4969593;28;20046;-48
2023/09/12 10:19:27;;;;;;;6.53;2.58;;;;;;;20.68;70.41;99920.53;4969861;28;20046;-48
2023/09/12 10:22:12;;;;;;;5.72;2.50;;;;;;;20.65;70.69;99925.94;4972147;28;20133;-53
2023/09/12 10:24:40;;;;;;;4.43;2.42;;;;;;;20.72;71.08;99931.75;4979968;28;20054;-47
2023/09/12 10:27:09;;;;;;;5.32;2.28;;;;;;;20.75;70.69;99924.56;4979471;28;20057;-47
2023/09/12 10:29:35;;;;;;;5.40;2.00;;;;;;;20.79;70.59;99934.03;4976193;28;20050;-47
2023/09/12 10:32:02;;;;;;;5.38;2.13;;;;;;;20.87;70.63;99936.28;4977518;28;20059;-55
2023/09/12 10:34:32;;;;;;;4.00;2.25;;;;;;;20.92;70.55;99936.09;4982195;28;20689;-53
2023/09/12 10:36:59;;;;;;;2.70;1.60;;;;;;;20.93;70.87;99929.91;4984606;28;20050;-44
2023/09/12 10:39:28;;;;;;;3.78;1.67;;;;;;;20.95;70.51;99938.59;4980381;28;20546;-48
2023/09/12 10:41:57;;;;;;;1.98;1.13;;;;;;;20.94;70.53;99931.63;4979304;28;20054;-49
2023/09/12 10:44:24;;;;;;;2.10;1.27;;;;;;;20.93;70.70;99928.13;4974195;28;20059;-50
2023/09/12 10:46:54;;;;;;;3.80;1.20;;;;;;;20.95;70.87;99933.31;4971785;28;20061;-51
2023/09/12 10:49:21;;;;;;;3.05;1.45;;;;;;;20.95;70.44;99938.59;4966278;28;20616;-48
2023/09/12 10:51:49;;;;;;;1.38;0.70;;;;;;;20.95;70.53;99938.59;4961214;28;20055;-49
2023/09/12 10:54:25;;;;;;;1.55;0.70;;;;;;;20.95;70.27;99938.59;4957352;28;20050;-46
2023/09/12 10:57:11;;;;;;;1.67;0.90;;;;;;;20.88;70.51;99937.16;4955703;28;20061;-50
2023/09/12 11:02:38;;;;;;;1.38;0.50;;;;;;;20.89;70.41;99939.75;5018678;28;20410;-53
2023/09/12 11:05:26;;;;;;;2.00;0.60;;;;;;;20.92;70.74;99938.72;5015960;28;20057;-49
2023/09/12 11:07:59;;;;;;;2.38;0.70;;;;;;;20.97;70.67;99935.91;5024998;28;20061;-51
2023/09/12 11:10:26;;;;;;;1.63;0.90;;;;;;;21.00;70.67;99941.84;5010318;28;20736;-49
2023/09/12 11:12:56;;;;;;;4.30;1.45;;;;;;;21.09;70.87;99937.94;5008711;28;21117;-52
2023/09/12 11:15:25;;;;;;;3.05;1.58;;;;;;;21.19;70.75;99938.31;5024319;28;20175;-48
2023/09/12 11:18:08;;;;;;;2.65;0.68;;;;;;;21.25;70.40;99935.41;5010193;28;20077;-49
2023/09/12 11:23:27;;;;;;;1.23;0.80;;;;;;;21.41;70.74;99934.63;5027862;28;20429;-51
2023/09/12 11:26:11;;;;;;;2.65;1.02;;;;;;;21.38;70.29;99934.78;4990852;28;20057;-49
2023/09/12 11:28:39;;;;;;;1.65;0.70;;;;;;;21.42;69.82;99942.44;4992150;28;20061;-49
2023/09/12 11:31:06;;;;;;;1.85;0.85;;;;;;;21.43;70.18;99938.03;4991928;28;20058;-49
2023/09/12 11:33:33;;;;;;;3.33;1.70;;;;;;;21.41;70.07;99934.63;4994964;28;20135;-51
2023/09/12 11:36:05;;;;;;;4.68;2.40;;;;;;;21.37;70.04;99933.91;4997540;28;20676;-50
2023/09/12 11:38:33;;;;;;;2.30;0.98;;;;;;;21.28;69.53;99943.13;4989638;28;20603;-51
2023/09/12 11:41:00;;;;;;;2.35;1.13;;;;;;;21.20;69.65;99937.38;4990644;28;20061;-48
2023/09/12 11:43:28;;;;;;;4.65;1.15;;;;;;;21.18;70.11;99945.34;5003773;28;20658;-50
2023/09/12 11:45:56;;;;;;;4.47;1.35;;;;;;;21.16;69.49;99939.34;4998855;28;20623;-49
2023/09/12 11:48:23;;;;;;;4.13;1.15;;;;;;;21.13;70.00;99941.25;4991292;28;20050;-46
2023/09/12 11:50:54;;;;;;;2.85;2.28;;;;;;;21.12;70.34;99945.69;4996580;28;21109;-48
2023/09/12 11:53:25;;;;;;;6.13;1.50;;;;;;;21.15;70.00;99939.41;4989966;28;20050;-47
2023/09/12 11:55:58;;;;;;;4.03;1.73;;;;;;;21.19;70.62;99946.22;5000377;28;20050;-50